createdAt,value
2023-04-23T00:02:16.847Z,19.48
2023-04-23T00:04:51.746Z,16.90
2023-04-23T00:07:22.197Z,17.63
2023-04-23T00:09:53.040Z,20.98
2023-04-23T00:12:21.165Z,17.55
2023-04-23T00:14:48.737Z,15.45
2023-04-23T00:17:15.806Z,13.90
2023-04-23T00:19:42.964Z,17.35
2023-04-23T00:22:10.086Z,17.63
2023-04-23T00:24:39.347Z,16.10
2023-04-23T00:27:06.740Z,20.02
2023-04-23T00:29:33.816Z,14.00
2023-04-23T00:32:01.245Z,18.13
2023-04-23T00:34:28.514Z,17.23
2023-04-23T00:36:55.694Z,16.02
2023-04-23T00:39:22.942Z,16.90
2023-04-23T00:41:50.707Z,12.00
2023-04-23T00:44:17.901Z,13.77
2023-04-23T00:46:46.461Z,13.30
2023-04-23T00:49:14.255Z,15.75
2023-04-23T00:51:41.402Z,21.92
2023-04-23T00:54:08.557Z,14.98
2023-04-23T00:56:35.851Z,20.15
2023-04-23T00:59:03.524Z,23.83
2023-04-23T01:01:30.928Z,21.55
2023-04-23T01:03:59.209Z,17.35
2023-04-23T01:06:28.854Z,14.25
2023-04-23T01:08:56.349Z,17.52
2023-04-23T01:11:23.808Z,18.52
2023-04-23T01:13:51.118Z,24.27
2023-04-23T01:16:19.519Z,19.30
2023-04-23T01:18:47.219Z,18.15
2023-04-23T01:21:17.176Z,15.02
2023-04-23T01:23:44.245Z,18.98
2023-04-23T01:26:11.638Z,18.35
2023-04-23T01:28:39.343Z,21.85
2023-04-23T01:31:07.174Z,22.98
2023-04-23T01:33:36.034Z,19.30
2023-04-23T01:36:03.500Z,29.92
2023-04-23T01:38:33.652Z,23.92
2023-04-23T01:41:00.692Z,18.08
2023-04-23T01:43:28.753Z,18.98
2023-04-23T01:45:55.934Z,16.80
2023-04-23T01:48:24.177Z,16.02
2023-04-23T01:50:52.225Z,22.38
2023-04-23T01:53:19.297Z,17.85
2023-04-23T01:55:50.942Z,19.52
2023-04-23T01:58:18.269Z,21.45
2023-04-23T02:00:46.241Z,22.13
2023-04-23T02:03:13.359Z,21.80
2023-04-23T02:05:41.663Z,21.05
2023-04-23T02:08:09.347Z,23.48
2023-04-23T02:10:36.771Z,17.52
2023-04-23T02:13:04.177Z,25.00
2023-04-23T02:15:32.664Z,21.05
2023-04-23T02:18:00.800Z,16.42
2023-04-23T02:20:27.868Z,18.55
2023-04-23T02:22:55.076Z,18.63
2023-04-23T02:25:22.160Z,21.45
2023-04-23T02:27:49.465Z,25.90
2023-04-23T02:30:17.853Z,18.98
2023-04-23T02:32:45.038Z,21.40
2023-04-23T02:35:12.852Z,22.75
2023-04-23T02:37:40.934Z,16.83
2023-04-23T02:40:09.303Z,18.35
2023-04-23T02:42:36.925Z,21.58
2023-04-23T02:45:05.823Z,16.48
2023-04-23T02:47:33.104Z,17.98
2023-04-23T02:50:03.312Z,20.73
2023-04-23T02:52:31.770Z,18.73
2023-04-23T02:54:59.925Z,24.30
2023-04-23T02:57:27.166Z,19.48
2023-04-23T02:59:54.682Z,22.60
2023-04-23T03:02:33.519Z,19.27
2023-04-23T03:05:01.022Z,23.38
2023-04-23T03:07:28.576Z,18.58
2023-04-23T03:09:55.699Z,25.75
2023-04-23T03:12:23.051Z,19.50
2023-04-23T03:14:50.062Z,18.60
2023-04-23T03:17:17.667Z,20.48
2023-04-23T03:19:44.930Z,24.17
2023-04-23T03:22:12.203Z,23.60
2023-04-23T03:24:39.533Z,20.42
2023-04-23T03:27:06.706Z,27.40
2023-04-23T03:29:34.155Z,27.05
2023-04-23T03:32:01.580Z,20.85
2023-04-23T03:34:28.687Z,23.50
2023-04-23T03:36:55.826Z,20.88
2023-04-23T03:39:22.845Z,23.08
2023-04-23T03:41:53.250Z,31.80
2023-04-23T03:44:24.684Z,30.33
2023-04-23T03:46:52.452Z,24.17
2023-04-23T03:49:20.858Z,30.15
2023-04-23T03:51:48.014Z,26.80
2023-04-23T03:54:16.012Z,26.48
2023-04-23T03:57:02.602Z,23.75
2023-04-23T03:59:34.385Z,24.15
2023-04-23T04:02:04.408Z,27.08
2023-04-23T04:04:32.052Z,23.30
2023-04-23T04:07:02.806Z,26.85
2023-04-23T04:09:29.853Z,26.33
2023-04-23T04:12:01.806Z,25.48
2023-04-23T04:14:28.861Z,28.02
2023-04-23T04:16:57.003Z,24.30
2023-04-23T04:19:24.504Z,27.40
2023-04-23T04:21:51.866Z,26.20
2023-04-23T04:24:19.084Z,30.17
2023-04-23T04:26:47.707Z,27.35
2023-04-23T04:29:15.136Z,26.67
2023-04-23T04:31:42.251Z,24.70
2023-04-23T04:34:10.697Z,29.33
2023-04-23T04:36:37.797Z,16.85
2023-04-23T04:39:05.319Z,26.05
2023-04-23T04:41:32.609Z,27.23
2023-04-23T04:43:59.806Z,24.60
2023-04-23T04:46:29.410Z,25.70
2023-04-23T04:48:56.814Z,25.00
2023-04-23T04:51:23.936Z,21.33
2023-04-23T04:53:51.029Z,21.17
2023-04-23T04:56:18.028Z,22.20
2023-04-23T04:58:45.167Z,26.92
2023-04-23T05:01:12.696Z,22.38
2023-04-23T05:03:39.888Z,16.90
2023-04-23T05:06:07.038Z,12.93
2023-04-23T05:08:34.122Z,14.55
2023-04-23T05:11:01.899Z,11.23
2023-04-23T05:13:28.903Z,8.15
2023-04-23T05:15:55.915Z,8.63
2023-04-23T05:18:22.979Z,7.75
2023-04-23T05:20:50.130Z,9.02
2023-04-23T05:23:17.119Z,7.20
2023-04-23T05:25:44.135Z,7.10
2023-04-23T05:28:11.215Z,11.20
2023-04-23T05:30:38.298Z,10.65
2023-04-23T05:33:05.628Z,9.57
2023-04-23T05:35:32.707Z,9.73
2023-04-23T05:38:00.156Z,12.40
2023-04-23T05:40:27.215Z,12.40
2023-04-23T05:42:54.850Z,7.97
2023-04-23T05:45:21.973Z,8.65
2023-04-23T05:47:49.009Z,9.98
2023-04-23T05:50:16.159Z,7.22
2023-04-23T05:52:43.191Z,7.35
2023-04-23T05:55:10.850Z,6.80
2023-04-23T05:57:38.901Z,9.25
2023-04-23T06:00:09.893Z,7.68
2023-04-23T06:02:41.511Z,10.35
2023-04-23T06:05:09.513Z,9.95
2023-04-23T06:07:36.845Z,8.48
2023-04-23T06:10:05.711Z,9.40
2023-04-23T06:12:33.369Z,10.02
2023-04-23T06:15:00.608Z,11.00
2023-04-23T06:17:27.933Z,7.50
2023-04-23T06:19:54.966Z,11.07
2023-04-23T06:22:22.093Z,5.90
2023-04-23T06:24:49.198Z,8.90
2023-04-23T06:27:16.184Z,9.55
2023-04-23T06:29:47.817Z,11.85
2023-04-23T06:32:15.099Z,6.93
2023-04-23T06:34:53.267Z,6.53
2023-04-23T06:37:28.127Z,7.60
2023-04-23T06:39:56.350Z,5.55
2023-04-23T06:42:23.449Z,8.27
2023-04-23T06:45:07.214Z,8.63
2023-04-23T06:47:34.320Z,8.63
2023-04-23T06:50:02.326Z,7.80
2023-04-23T06:52:30.728Z,6.38
2023-04-23T06:54:57.758Z,8.63
2023-04-23T06:57:24.813Z,8.15
2023-04-23T06:59:51.889Z,7.47
2023-04-23T07:02:22.188Z,10.15
2023-04-23T07:04:49.254Z,7.30
2023-04-23T07:07:16.434Z,8.50
2023-04-23T07:09:44.155Z,7.30
2023-04-23T07:12:11.679Z,7.78
2023-04-23T07:14:38.811Z,6.90
2023-04-23T07:17:06.221Z,11.43
2023-04-23T07:19:33.326Z,9.93
2023-04-23T07:22:00.383Z,10.38
2023-04-23T07:24:27.485Z,9.88
2023-04-23T07:26:54.893Z,10.93
2023-04-23T07:29:22.556Z,10.73
2023-04-23T07:31:49.744Z,11.85
2023-04-23T07:34:16.790Z,10.27
2023-04-23T07:36:43.828Z,18.85
2023-04-23T07:39:11.184Z,14.50
2023-04-23T07:41:38.581Z,17.17
2023-04-23T07:44:05.696Z,14.40
2023-04-23T07:46:32.832Z,15.20
2023-04-23T07:49:00.075Z,12.90
2023-04-23T07:51:27.194Z,11.25
2023-04-23T07:53:54.612Z,11.75
2023-04-23T07:56:22.540Z,9.65
2023-04-23T07:58:49.679Z,10.43
2023-04-23T08:01:17.547Z,7.35
2023-04-23T08:03:44.798Z,9.13
2023-04-23T08:06:14.841Z,13.13
2023-04-23T08:08:41.958Z,9.63
2023-04-23T08:11:09.144Z,8.82
2023-04-23T08:13:36.176Z,7.25
2023-04-23T08:16:03.299Z,7.00
2023-04-23T08:18:30.641Z,6.97
2023-04-23T08:20:57.718Z,6.38
2023-04-23T08:23:25.008Z,5.43
2023-04-23T08:25:52.232Z,8.93
2023-04-23T08:28:19.809Z,5.07
2023-04-23T08:30:47.019Z,5.72
2023-04-23T08:33:15.015Z,4.70
2023-04-23T08:35:42.251Z,6.10
2023-04-23T08:38:09.511Z,5.40
2023-04-23T08:40:38.666Z,4.78
2023-04-23T08:43:20.226Z,5.68
2023-04-23T08:45:49.196Z,5.47
2023-04-23T08:48:16.467Z,4.95
2023-04-23T08:50:44.630Z,3.78
2023-04-23T08:53:18.211Z,2.80
2023-04-23T08:55:46.019Z,2.72
2023-04-23T08:58:13.974Z,3.78
2023-04-23T09:00:41.302Z,4.90
2023-04-23T09:03:09.205Z,4.13
2023-04-23T09:05:36.768Z,3.70
2023-04-23T09:08:03.856Z,5.10
2023-04-23T09:10:30.873Z,4.47
2023-04-23T09:12:57.968Z,6.78
2023-04-23T09:15:25.101Z,6.10
2023-04-23T09:17:52.189Z,4.97
2023-04-23T09:20:19.265Z,5.28
2023-04-23T09:22:51.506Z,4.88
2023-04-23T09:25:20.901Z,3.65
2023-04-23T09:27:49.464Z,5.00
2023-04-23T09:30:17.446Z,5.32
2023-04-23T09:32:46.237Z,2.90
2023-04-23T09:35:15.753Z,6.68
2023-04-23T09:37:48.605Z,3.47
2023-04-23T09:40:18.878Z,4.97
2023-04-23T09:42:55.209Z,5.75
2023-04-23T09:45:22.924Z,4.38
2023-04-23T09:47:55.136Z,5.85
2023-04-23T09:50:39.719Z,4.68
2023-04-23T09:53:08.354Z,3.60
2023-04-23T09:55:40.829Z,5.65
2023-04-23T09:58:13.070Z,8.35
2023-04-23T10:00:40.938Z,5.25
2023-04-23T10:03:10.008Z,5.82
2023-04-23T10:05:59.672Z,5.30
2023-04-23T10:08:28.954Z,4.25
2023-04-23T10:11:06.518Z,4.93
2023-04-23T10:13:38.408Z,4.07
2023-04-23T10:16:20.607Z,5.22
2023-04-23T10:18:48.638Z,5.45
2023-04-23T10:21:17.636Z,4.43
2023-04-23T10:23:47.333Z,7.32
2023-04-23T10:26:16.965Z,5.38
2023-04-23T10:28:48.539Z,2.70
2023-04-23T10:31:16.247Z,5.72
2023-04-23T10:33:56.051Z,4.63
2023-04-23T10:36:28.016Z,4.55
2023-04-23T10:39:00.325Z,4.22
2023-04-23T10:41:35.858Z,4.03
2023-04-23T10:44:04.872Z,5.93
2023-04-23T10:46:33.374Z,5.10
2023-04-23T10:49:15.310Z,4.40
2023-04-23T10:52:17.976Z,5.60
2023-04-23T10:54:33.741Z,3.22
2023-04-23T10:57:07.001Z,4.85
2023-04-23T10:59:36.315Z,5.68
2023-04-23T11:02:11.669Z,3.38
2023-04-23T11:04:45.852Z,6.43
2023-04-23T11:07:14.169Z,3.47
2023-04-23T11:09:47.492Z,3.60
2023-04-23T11:12:35.342Z,3.85
2023-04-23T11:15:16.519Z,4.28
2023-04-23T11:17:48.409Z,3.45
2023-04-23T11:20:19.695Z,5.47
2023-04-23T11:22:49.198Z,4.47
2023-04-23T11:25:27.180Z,3.88
2023-04-23T11:27:56.056Z,4.30
2023-04-23T11:30:28.434Z,4.97
2023-04-23T11:32:57.513Z,7.93
2023-04-23T11:35:30.468Z,5.03
2023-04-23T11:37:57.794Z,4.38
2023-04-23T11:40:24.861Z,4.82
2023-04-23T11:42:55.446Z,4.43
2023-04-23T11:45:29.917Z,3.70
2023-04-23T11:47:58.519Z,3.97
2023-04-23T11:50:27.572Z,4.07
2023-04-23T11:52:55.240Z,3.28
2023-04-23T11:55:23.284Z,5.43
2023-04-23T11:57:52.924Z,3.25
2023-04-23T12:00:23.038Z,3.83
2023-04-23T12:02:58.197Z,3.67
2023-04-23T12:05:39.613Z,6.75
2023-04-23T12:08:16.662Z,4.10
2023-04-23T12:10:50.705Z,4.55
2023-04-23T12:13:19.584Z,3.38
2023-04-23T12:15:51.652Z,6.18
2023-04-23T12:18:19.661Z,4.95
2023-04-23T12:20:46.712Z,4.97
2023-04-23T12:23:13.972Z,3.80
2023-04-23T12:25:42.475Z,3.85
2023-04-23T12:28:09.508Z,3.90
2023-04-23T12:30:44.060Z,4.88
2023-04-23T12:33:12.061Z,7.18
2023-04-23T12:35:43.055Z,5.53
2023-04-23T12:38:30.667Z,5.88
2023-04-23T12:41:00.001Z,5.57
2023-04-23T12:43:27.262Z,4.20
2023-04-23T12:45:57.505Z,5.60
2023-04-23T12:48:24.521Z,4.38
2023-04-23T12:50:51.521Z,5.05
2023-04-23T12:53:18.929Z,3.97
2023-04-23T12:55:46.076Z,4.82
2023-04-23T12:58:13.373Z,3.88
2023-04-23T13:00:40.764Z,5.85
2023-04-23T13:03:08.755Z,7.10
2023-04-23T13:05:35.895Z,5.45
2023-04-23T13:08:03.059Z,4.68
2023-04-23T13:10:31.034Z,7.82
2023-04-23T13:12:58.256Z,6.03
2023-04-23T13:15:27.035Z,5.93
2023-04-23T13:17:54.502Z,6.43
2023-04-23T13:20:21.846Z,5.03
2023-04-23T13:22:51.544Z,4.88
2023-04-23T13:25:19.650Z,6.72
2023-04-23T13:27:46.661Z,5.72
2023-04-23T13:30:13.977Z,4.50
2023-04-23T13:32:41.621Z,5.53
2023-04-23T13:35:09.271Z,5.47
2023-04-23T13:37:36.490Z,3.92
2023-04-23T13:40:03.874Z,4.40
2023-04-23T13:42:31.575Z,7.25
2023-04-23T13:44:58.580Z,5.35
2023-04-23T13:47:27.592Z,4.05
2023-04-23T13:49:54.700Z,4.43
2023-04-23T13:52:21.739Z,5.68
2023-04-23T13:54:49.247Z,4.50
2023-04-23T13:57:16.378Z,5.38
2023-04-23T13:59:43.687Z,8.00
2023-04-23T14:02:11.031Z,5.82
2023-04-23T14:04:39.801Z,5.18
2023-04-23T14:07:07.154Z,5.75
2023-04-23T14:09:34.290Z,6.10
2023-04-23T14:12:01.789Z,4.20
2023-04-23T14:14:29.314Z,4.88
2023-04-23T14:16:56.474Z,5.50
2023-04-23T14:19:23.864Z,5.32
2023-04-23T14:21:51.074Z,8.60
2023-04-23T14:24:23.963Z,7.72
2023-04-23T14:26:51.003Z,6.00
2023-04-23T14:29:35.411Z,6.45
2023-04-23T14:32:02.677Z,4.30
2023-04-23T14:34:29.956Z,4.95
2023-04-23T14:36:57.112Z,5.15
2023-04-23T14:39:26.951Z,3.83
2023-04-23T14:41:53.999Z,6.72
2023-04-23T14:44:23.531Z,5.53
2023-04-23T14:46:51.352Z,4.97
2023-04-23T14:49:21.703Z,5.70
2023-04-23T14:51:55.426Z,4.57
2023-04-23T14:54:22.858Z,3.90
2023-04-23T14:56:52.892Z,5.07
2023-04-23T14:59:21.329Z,4.88
2023-04-23T15:01:48.476Z,5.05
2023-04-23T15:04:16.427Z,5.30
2023-04-23T15:06:43.491Z,7.57
2023-04-23T15:09:10.536Z,5.35
2023-04-23T15:11:39.005Z,5.38
2023-04-23T15:14:18.301Z,5.50
2023-04-23T15:16:49.245Z,4.55
2023-04-23T15:19:19.772Z,5.68
2023-04-23T15:21:48.197Z,4.90
2023-04-23T15:24:16.427Z,4.10
2023-04-23T15:26:45.896Z,4.28
2023-04-23T15:29:13.670Z,5.15
2023-04-23T15:31:41.946Z,6.53
2023-04-23T15:34:09.572Z,5.18
2023-04-23T15:36:38.115Z,4.70
2023-04-23T15:39:06.516Z,4.28
2023-04-23T15:41:34.675Z,5.35
2023-04-23T15:44:02.105Z,4.78
2023-04-23T15:46:29.134Z,4.97
2023-04-23T15:48:56.399Z,7.00
2023-04-23T15:51:23.448Z,6.55
2023-04-23T15:53:51.620Z,5.82
2023-04-23T15:56:18.625Z,5.40
2023-04-23T15:58:45.600Z,4.60
2023-04-23T16:01:13.260Z,4.80
2023-04-23T16:03:40.745Z,5.95
2023-04-23T16:06:12.051Z,4.38
2023-04-23T16:08:39.606Z,5.53
2023-04-23T16:11:08.961Z,5.00
2023-04-23T16:13:36.149Z,5.13
2023-04-23T16:16:03.256Z,6.35
2023-04-23T16:18:30.330Z,5.00
2023-04-23T16:20:58.788Z,8.43
2023-04-23T16:23:26.087Z,42.92
2023-04-23T16:25:53.194Z,20.20
2023-04-23T16:28:20.394Z,11.65
2023-04-23T16:30:47.509Z,13.52
2023-04-23T16:33:14.729Z,8.30
2023-04-23T16:35:41.799Z,8.73
2023-04-23T16:38:11.307Z,5.00
2023-04-23T16:40:39.912Z,8.75
2023-04-23T16:43:07.027Z,5.40
2023-04-23T16:45:35.076Z,6.43
2023-04-23T16:48:02.051Z,5.18
2023-04-23T16:50:29.119Z,6.10
2023-04-23T16:52:56.624Z,7.10
2023-04-23T16:55:23.678Z,8.50
2023-04-23T16:57:50.702Z,5.68
2023-04-23T17:00:18.081Z,4.65
2023-04-23T17:02:45.285Z,6.75
2023-04-23T17:05:12.484Z,4.75
2023-04-23T17:07:43.904Z,5.75
2023-04-23T17:10:11.301Z,5.05
2023-04-23T17:12:38.416Z,6.63
2023-04-23T17:15:05.828Z,8.52
2023-04-23T17:17:33.399Z,6.78
2023-04-23T17:20:00.482Z,13.77
2023-04-23T17:22:27.486Z,10.43
2023-04-23T17:24:54.555Z,9.70
2023-04-23T17:27:21.703Z,8.10
2023-04-23T17:29:49.311Z,5.47
2023-04-23T17:32:16.361Z,5.82
2023-04-23T17:34:43.692Z,4.63
2023-04-23T17:37:11.011Z,7.95
2023-04-23T17:39:38.109Z,6.20
2023-04-23T17:42:06.484Z,7.78
2023-04-23T17:44:35.143Z,8.48
2023-04-23T17:47:02.097Z,11.73
2023-04-23T17:49:29.120Z,9.27
2023-04-23T17:51:56.612Z,8.13
2023-04-23T17:54:25.123Z,9.05
2023-04-23T17:56:52.393Z,8.27
2023-04-23T17:59:19.462Z,7.25
2023-04-23T18:01:46.549Z,7.00
2023-04-23T18:04:16.001Z,5.57
2023-04-23T18:06:44.633Z,8.30
2023-04-23T18:09:11.606Z,6.90
2023-04-23T18:11:39.958Z,9.38
2023-04-23T18:14:07.049Z,9.68
2023-04-23T18:16:34.115Z,6.80
2023-04-23T18:19:01.474Z,8.63
2023-04-23T18:21:29.450Z,8.93
2023-04-23T18:23:56.569Z,8.55
2023-04-23T18:26:24.069Z,9.55
2023-04-23T18:28:51.096Z,7.15
2023-04-23T18:31:18.169Z,9.52
2023-04-23T18:33:53.605Z,10.77
2023-04-23T18:36:25.262Z,13.43
2023-04-23T18:38:52.405Z,10.52
2023-04-23T18:41:19.426Z,13.63
2023-04-23T18:43:46.573Z,15.00
2023-04-23T18:46:13.776Z,12.75
2023-04-23T18:48:46.723Z,12.98
2023-04-23T18:51:33.341Z,12.25
2023-04-23T18:54:01.839Z,12.47
2023-04-23T18:56:29.161Z,14.48
2023-04-23T18:58:56.214Z,12.82
2023-04-23T19:01:24.534Z,14.80
2023-04-23T19:03:51.705Z,16.65
2023-04-23T19:06:19.406Z,19.25
2023-04-23T19:08:46.663Z,17.13
2023-04-23T19:11:13.670Z,13.48
2023-04-23T19:13:40.785Z,12.00
2023-04-23T19:16:10.023Z,14.13
2023-04-23T19:18:38.246Z,13.32
2023-04-23T19:21:05.302Z,18.10
2023-04-23T19:23:32.402Z,19.58
2023-04-23T19:25:59.628Z,16.63
2023-04-23T19:28:26.768Z,14.90
2023-04-23T19:30:53.851Z,20.50
2023-04-23T19:33:20.974Z,13.65
2023-04-23T19:35:48.470Z,16.55
2023-04-23T19:38:15.797Z,16.60
2023-04-23T19:40:43.287Z,19.88
2023-04-23T19:43:12.542Z,12.70
2023-04-23T19:45:39.883Z,17.60
2023-04-23T19:48:08.345Z,16.38
2023-04-23T19:50:35.952Z,15.88
2023-04-23T19:53:05.851Z,22.73
2023-04-23T19:55:33.000Z,18.65
2023-04-23T19:58:00.009Z,17.60
2023-04-23T20:00:31.309Z,15.95
2023-04-23T20:02:58.615Z,17.65
2023-04-23T20:05:25.812Z,15.75
2023-04-23T20:07:53.249Z,19.02
2023-04-23T20:10:20.691Z,16.27
2023-04-23T20:12:47.757Z,15.38
2023-04-23T20:15:14.864Z,24.67
2023-04-23T20:17:42.288Z,18.40
2023-04-23T20:20:10.820Z,20.33
2023-04-23T20:22:37.849Z,19.23
2023-04-23T20:25:05.419Z,15.90
2023-04-23T20:27:34.170Z,17.95
2023-04-23T20:30:01.205Z,17.35
2023-04-23T20:32:28.292Z,17.83
2023-04-23T20:34:55.557Z,13.82
2023-04-23T20:37:22.578Z,13.88
2023-04-23T20:39:50.161Z,18.83
2023-04-23T20:42:17.336Z,20.63
2023-04-23T20:44:47.076Z,15.00
2023-04-23T20:47:16.445Z,13.25
2023-04-23T20:49:43.983Z,16.15
2023-04-23T20:52:12.560Z,16.88
2023-04-23T20:54:39.645Z,15.35
2023-04-23T20:57:07.123Z,18.35
2023-04-23T20:59:34.412Z,20.92
2023-04-23T21:02:01.577Z,15.02
2023-04-23T21:04:28.802Z,16.23
2023-04-23T21:06:56.331Z,25.33
2023-04-23T21:09:23.744Z,25.15
2023-04-23T21:11:51.260Z,28.02
2023-04-23T21:14:18.535Z,19.90
2023-04-23T21:16:45.631Z,19.05
2023-04-23T21:19:12.788Z,24.38
2023-04-23T21:21:39.824Z,18.45
2023-04-23T21:24:07.192Z,26.75
2023-04-23T21:26:34.231Z,21.00
2023-04-23T21:29:01.270Z,25.23
2023-04-23T21:31:45.904Z,17.30
2023-04-23T21:34:14.733Z,22.38
2023-04-23T21:36:41.990Z,18.02
2023-04-23T21:39:11.052Z,20.17
2023-04-23T21:41:39.976Z,15.38
2023-04-23T21:44:08.069Z,28.00
2023-04-23T21:46:35.217Z,19.40
2023-04-23T21:49:02.613Z,26.17
2023-04-23T21:51:30.214Z,18.33
2023-04-23T21:53:57.306Z,20.23
2023-04-23T21:56:24.441Z,21.65
2023-04-23T21:58:51.490Z,18.08
2023-04-23T22:01:18.628Z,18.50
2023-04-23T22:03:46.856Z,19.73
2023-04-23T22:06:18.479Z,20.35
2023-04-23T22:08:47.469Z,17.58
2023-04-23T22:11:14.930Z,22.90
2023-04-23T22:13:42.000Z,24.63
2023-04-23T22:16:24.387Z,19.52
2023-04-23T22:18:52.144Z,20.10
2023-04-23T22:21:19.175Z,18.00
2023-04-23T22:23:46.382Z,16.77
2023-04-23T22:26:13.379Z,21.25
2023-04-23T22:28:40.535Z,16.10
2023-04-23T22:31:07.490Z,13.57
2023-04-23T22:33:35.186Z,19.13
2023-04-23T22:36:02.898Z,14.40
2023-04-23T22:38:29.901Z,14.20
2023-04-23T22:40:57.111Z,21.23
2023-04-23T22:43:24.104Z,18.02
2023-04-23T22:45:51.317Z,16.20
2023-04-23T22:48:18.394Z,15.25
2023-04-23T22:50:45.363Z,17.58
2023-04-23T22:53:12.642Z,17.17
2023-04-23T22:55:39.899Z,13.70
2023-04-23T22:58:06.955Z,18.75
2023-04-23T23:00:34.100Z,19.60
2023-04-23T23:03:01.311Z,18.33
2023-04-23T23:05:28.633Z,18.75
2023-04-23T23:07:56.513Z,18.10
2023-04-23T23:10:23.660Z,13.93
2023-04-23T23:12:50.807Z,15.98
2023-04-23T23:15:17.957Z,16.27
2023-04-23T23:17:45.188Z,18.40
2023-04-23T23:20:12.300Z,22.60
2023-04-23T23:22:39.417Z,16.40
2023-04-23T23:25:07.530Z,15.07
2023-04-23T23:27:34.594Z,19.05
2023-04-23T23:30:05.791Z,14.40
2023-04-23T23:32:33.768Z,16.52
2023-04-23T23:35:00.921Z,18.73
2023-04-23T23:37:28.096Z,19.70
2023-04-23T23:39:55.564Z,20.77
2023-04-23T23:42:22.843Z,17.10
2023-04-23T23:44:49.946Z,14.80
2023-04-23T23:47:17.185Z,22.77
2023-04-23T23:49:44.451Z,17.88
2023-04-23T23:52:11.780Z,14.00
2023-04-23T23:54:38.834Z,13.95
2023-04-23T23:57:05.827Z,22.00
2023-04-23T23:59:33.077Z,18.95
